Elizabeth — 9V8794 — position and weather

sailwx.info

Track history (hours):
 
Tides and Currents Weather Stations Pressure Air Temp Water Temp Dewpoint Dewpoint Depression Visibility Wind Speed Wind Dir Waves Ship Positions

Elizabeth

Last reported at 2014-Dec-17 15:32 UTC. Time now 2014-Dec-20 05:12 UTC.
Position N 28°57' W 094°31'.

Length 190 m; draft 11.2 m.

Type: Cargo ship. MMSI: 566073000.

Date/timePositionNaut miles runAvg speedWind from/ knotsBaromVisibWave heightAir tempDewpointWater temp
2014-Dec-17 15:32N 28°57' W 094°31'2 1.6
2014-Dec-17 14:30N 28°56' W 094°29'  
2014-Dec-14 15:26N 29°19' W 094°49'0 0.0
2014-Dec-14 13:32N 29°19' W 094°49'1 0.0
2014-Dec-13 23:16N 29°19' W 094°49'0 0.0
2014-Dec-13 18:30N 29°18' W 094°49'0 0.0
2014-Dec-13 16:24N 29°18' W 094°49'0 0.0
2014-Dec-13 15:12N 29°18' W 094°49'0 0.0
2014-Dec-13 14:18N 29°18' W 094°49'0 0.0
2014-Dec-13 08:24N 29°18' W 094°49'0 0.0
2014-Dec-13 04:21N 29°18' W 094°49'0 0.0
2014-Dec-13 03:33N 29°18' W 094°49'0 0.0
2014-Dec-13 01:24N 29°18' W 094°49'0 0.0
2014-Dec-13 00:12N 29°18' W 094°49'0 0.0
2014-Dec-12 23:06N 29°18' W 094°49'0 0.0
2014-Dec-12 15:15N 29°18' W 094°49'0 0.0
2014-Dec-12 14:30N 29°18' W 094°49'0 0.0
2014-Dec-12 13:18N 29°18' W 094°49'0 0.0
2014-Dec-12 12:30N 29°18' W 094°49'0 0.0
2014-Dec-12 10:30N 29°18' W 094°49'0 0.0
2014-Dec-12 03:30N 29°18' W 094°49'0 0.0
2014-Dec-12 00:24N 29°18' W 094°49'0 0.0
2014-Dec-11 19:12N 29°18' W 094°49'0 0.0
2014-Dec-11 15:06N 29°18' W 094°49'0 0.0
2014-Dec-11 14:24N 29°18' W 094°49'0 0.0
2014-Dec-11 13:24N 29°18' W 094°49'0 0.0
2014-Dec-11 11:12N 29°18' W 094°49'0 0.0
2014-Dec-11 07:24N 29°18' W 094°49'0 0.0
2014-Dec-11 06:06N 29°18' W 094°49'0 0.0
2014-Dec-11 05:25N 29°18' W 094°49'1 1.2
2014-Dec-11 04:27N 29°19' W 094°48'13 6.8
2014-Dec-11 02:33N 29°16' W 094°34'4 1.7
2014-Dec-11 00:12N 29°15' W 094°29'0 0.0
2014-Dec-10 23:27N 29°15' W 094°29'0 0.0
2014-Dec-10 22:30N 29°15' W 094°29'0 0.0
2014-Dec-10 16:27N 29°15' W 094°29'0 0.0
2014-Dec-10 13:24N 29°15' W 094°29'0 0.0
2014-Dec-10 12:33N 29°15' W 094°29'0 0.0
2014-Dec-10 11:33N 29°15' W 094°29'0 0.0
2014-Dec-10 10:33N 29°15' W 094°29'0 0.0
2014-Dec-10 09:33N 29°15' W 094°29'0 0.0
2014-Dec-10 08:33N 29°15' W 094°29'0 0.0
2014-Dec-10 07:27N 29°15' W 094°29'0 0.0
2014-Dec-10 06:33N 29°15' W 094°29'0 0.0
2014-Dec-09 14:18N 29°15' W 094°29'0 0.1
2014-Dec-09 13:31N 29°15' W 094°29'  
Track history (hours):
 
Tides and Currents Weather Stations Pressure Air Temp Water Temp Dewpoint Dewpoint Depression Visibility Wind Speed Wind Dir Waves Ship Positions

Elizabeth

Last reported at 2014-Dec-17 15:32 UTC. Time now 2014-Dec-20 05:12 UTC.
Position N 28°57' W 094°31'.

Length 190 m; draft 11.2 m.

Type: Cargo ship. MMSI: 566073000.

Date/timePositionNaut miles runAvg speedWind from/ knotsBaromVisibWave heightAir tempDewpointWater temp
2014-Dec-17 15:32N 28°57' W 094°31'2 1.6
2014-Dec-17 14:30N 28°56' W 094°29'  
2014-Dec-14 15:26N 29°19' W 094°49'0 0.0
2014-Dec-14 13:32N 29°19' W 094°49'1 0.0
2014-Dec-13 23:16N 29°19' W 094°49'0 0.0
2014-Dec-13 18:30N 29°18' W 094°49'0 0.0
2014-Dec-13 16:24N 29°18' W 094°49'0 0.0
2014-Dec-13 15:12N 29°18' W 094°49'0 0.0
2014-Dec-13 14:18N 29°18' W 094°49'0 0.0
2014-Dec-13 08:24N 29°18' W 094°49'0 0.0
2014-Dec-13 04:21N 29°18' W 094°49'0 0.0
2014-Dec-13 03:33N 29°18' W 094°49'0 0.0
2014-Dec-13 01:24N 29°18' W 094°49'0 0.0
2014-Dec-13 00:12N 29°18' W 094°49'0 0.0
2014-Dec-12 23:06N 29°18' W 094°49'0 0.0
2014-Dec-12 15:15N 29°18' W 094°49'0 0.0
2014-Dec-12 14:30N 29°18' W 094°49'0 0.0
2014-Dec-12 13:18N 29°18' W 094°49'0 0.0
2014-Dec-12 12:30N 29°18' W 094°49'0 0.0
2014-Dec-12 10:30N 29°18' W 094°49'0 0.0
2014-Dec-12 03:30N 29°18' W 094°49'0 0.0
2014-Dec-12 00:24N 29°18' W 094°49'0 0.0
2014-Dec-11 19:12N 29°18' W 094°49'0 0.0
2014-Dec-11 15:06N 29°18' W 094°49'0 0.0
2014-Dec-11 14:24N 29°18' W 094°49'0 0.0
2014-Dec-11 13:24N 29°18' W 094°49'0 0.0
2014-Dec-11 11:12N 29°18' W 094°49'0 0.0
2014-Dec-11 07:24N 29°18' W 094°49'0 0.0
2014-Dec-11 06:06N 29°18' W 094°49'0 0.0
2014-Dec-11 05:25N 29°18' W 094°49'1 1.2
2014-Dec-11 04:27N 29°19' W 094°48'13 6.8
2014-Dec-11 02:33N 29°16' W 094°34'4 1.7
2014-Dec-11 00:12N 29°15' W 094°29'0 0.0
2014-Dec-10 23:27N 29°15' W 094°29'0 0.0
2014-Dec-10 22:30N 29°15' W 094°29'0 0.0
2014-Dec-10 16:27N 29°15' W 094°29'0 0.0
2014-Dec-10 13:24N 29°15' W 094°29'0 0.0
2014-Dec-10 12:33N 29°15' W 094°29'0 0.0
2014-Dec-10 11:33N 29°15' W 094°29'0 0.0
2014-Dec-10 10:33N 29°15' W 094°29'0 0.0
2014-Dec-10 09:33N 29°15' W 094°29'0 0.0
2014-Dec-10 08:33N 29°15' W 094°29'0 0.0
2014-Dec-10 07:27N 29°15' W 094°29'0 0.0
2014-Dec-10 06:33N 29°15' W 094°29'0 0.0
2014-Dec-09 14:18N 29°15' W 094°29'0 0.1
2014-Dec-09 13:31N 29°15' W 094°29'  

Dump ship's entire track history